sensor_id;sensor_type;location;lat;lon;timestamp;P1;durP1;ratioP1;P2;durP2;ratioP2
46563;SDS011;32291;52.010;4.446;2022-07-24T00:00:59;16.88;;;15.18;;
46563;SDS011;32291;52.010;4.446;2022-07-24T00:02:00;16.23;;;14.65;;
46563;SDS011;32291;52.010;4.446;2022-07-24T00:03:02;16.00;;;14.48;;
46563;SDS011;32291;52.010;4.446;2022-07-24T00:04:05;16.45;;;14.98;;
46563;SDS011;32291;52.010;4.446;2022-07-24T00:05:08;17.08;;;15.50;;
46563;SDS011;32291;52.010;4.446;2022-07-24T00:06:11;16.27;;;14.68;;
46563;SDS011;32291;52.010;4.446;2022-07-24T00:07:13;18.45;;;16.35;;
46563;SDS011;32291;52.010;4.446;2022-07-24T00:08:15;16.20;;;14.48;;
46563;SDS011;32291;52.010;4.446;2022-07-24T00:09:16;17.33;;;14.85;;
46563;SDS011;32291;52.010;4.446;2022-07-24T00:10:19;17.85;;;15.13;;
46563;SDS011;32291;52.010;4.446;2022-07-24T00:11:21;16.15;;;14.38;;
46563;SDS011;32291;52.010;4.446;2022-07-24T00:12:23;14.93;;;13.30;;
46563;SDS011;32291;52.010;4.446;2022-07-24T00:13:25;15.35;;;13.88;;
46563;SDS011;32291;52.010;4.446;2022-07-24T00:14:28;14.95;;;13.48;;
46563;SDS011;32291;52.010;4.446;2022-07-24T00:15:30;16.40;;;14.85;;
46563;SDS011;32291;52.010;4.446;2022-07-24T00:16:32;15.82;;;13.95;;
46563;SDS011;32291;52.010;4.446;2022-07-24T00:17:34;15.70;;;14.30;;
46563;SDS011;32291;52.010;4.446;2022-07-24T00:18:36;15.77;;;14.00;;
46563;SDS011;32291;52.010;4.446;2022-07-24T00:19:38;18.95;;;15.52;;
46563;SDS011;32291;52.010;4.446;2022-07-24T00:20:40;16.23;;;14.40;;
46563;SDS011;32291;52.010;4.446;2022-07-24T00:21:42;16.85;;;15.15;;
46563;SDS011;32291;52.010;4.446;2022-07-24T00:22:44;15.68;;;14.10;;
46563;SDS011;32291;52.010;4.446;2022-07-24T00:23:46;18.38;;;15.25;;
46563;SDS011;32291;52.010;4.446;2022-07-24T00:24:48;15.98;;;14.35;;
46563;SDS011;32291;52.010;4.446;2022-07-24T00:25:51;16.52;;;14.60;;
46563;SDS011;32291;52.010;4.446;2022-07-24T00:26:54;15.48;;;13.98;;
46563;SDS011;32291;52.010;4.446;2022-07-24T00:27:57;16.90;;;14.95;;
46563;SDS011;32291;52.010;4.446;2022-07-24T00:28:59;16.30;;;14.27;;
46563;SDS011;32291;52.010;4.446;2022-07-24T00:30:01;17.20;;;15.45;;
46563;SDS011;32291;52.010;4.446;2022-07-24T00:31:04;16.50;;;14.80;;
46563;SDS011;32291;52.010;4.446;2022-07-24T00:32:06;18.52;;;15.70;;
46563;SDS011;32291;52.010;4.446;2022-07-24T00:33:09;19.33;;;15.60;;
46563;SDS011;32291;52.010;4.446;2022-07-24T00:34:11;15.77;;;14.27;;
46563;SDS011;32291;52.010;4.446;2022-07-24T00:35:13;16.63;;;15.02;;
46563;SDS011;32291;52.010;4.446;2022-07-24T00:36:16;16.58;;;14.95;;
46563;SDS011;32291;52.010;4.446;2022-07-24T00:37:18;15.15;;;13.75;;
46563;SDS011;32291;52.010;4.446;2022-07-24T00:38:21;17.88;;;15.02;;
46563;SDS011;32291;52.010;4.446;2022-07-24T00:39:24;15.90;;;14.25;;
46563;SDS011;32291;52.010;4.446;2022-07-24T00:40:26;17.95;;;13.98;;
46563;SDS011;32291;52.010;4.446;2022-07-24T00:41:28;19.20;;;15.90;;
46563;SDS011;32291;52.010;4.446;2022-07-24T00:42:31;15.85;;;14.23;;
46563;SDS011;32291;52.010;4.446;2022-07-24T00:43:33;15.60;;;13.88;;
46563;SDS011;32291;52.010;4.446;2022-07-24T00:44:35;13.38;;;12.18;;
46563;SDS011;32291;52.010;4.446;2022-07-24T00:45:37;16.80;;;15.02;;
46563;SDS011;32291;52.010;4.446;2022-07-24T00:46:40;15.68;;;14.23;;
46563;SDS011;32291;52.010;4.446;2022-07-24T00:47:45;15.80;;;14.23;;
46563;SDS011;32291;52.010;4.446;2022-07-24T00:48:47;15.90;;;14.20;;
46563;SDS011;32291;52.010;4.446;2022-07-24T00:49:49;16.10;;;14.50;;
46563;SDS011;32291;52.010;4.446;2022-07-24T00:50:51;17.33;;;15.50;;
46563;SDS011;32291;52.010;4.446;2022-07-24T00:51:53;17.52;;;15.73;;
46563;SDS011;32291;52.010;4.446;2022-07-24T00:52:56;18.10;;;13.75;;
46563;SDS011;32291;52.010;4.446;2022-07-24T00:53:59;16.15;;;14.38;;
46563;SDS011;32291;52.010;4.446;2022-07-24T00:55:05;15.35;;;13.90;;
46563;SDS011;32291;52.010;4.446;2022-07-24T00:56:08;13.38;;;12.07;;
46563;SDS011;32291;52.010;4.446;2022-07-24T00:57:11;16.77;;;14.68;;
46563;SDS011;32291;52.010;4.446;2022-07-24T00:58:13;16.40;;;14.80;;
46563;SDS011;32291;52.010;4.446;2022-07-24T00:59:15;15.80;;;14.25;;
46563;SDS011;32291;52.010;4.446;2022-07-24T01:00:20;16.67;;;13.20;;
46563;SDS011;32291;52.010;4.446;2022-07-24T01:01:23;17.20;;;15.15;;
46563;SDS011;32291;52.010;4.446;2022-07-24T01:02:26;17.55;;;15.68;;
46563;SDS011;32291;52.010;4.446;2022-07-24T01:03:28;17.63;;;14.82;;
46563;SDS011;32291;52.010;4.446;2022-07-24T01:04:31;15.10;;;13.52;;
46563;SDS011;32291;52.010;4.446;2022-07-24T01:05:33;15.30;;;13.75;;
46563;SDS011;32291;52.010;4.446;2022-07-24T01:06:34;17.23;;;14.48;;
46563;SDS011;32291;52.010;4.446;2022-07-24T01:07:37;15.95;;;14.13;;
46563;SDS011;32291;52.010;4.446;2022-07-24T01:08:39;15.35;;;13.85;;
46563;SDS011;32291;52.010;4.446;2022-07-24T01:09:44;17.10;;;14.15;;
46563;SDS011;32291;52.010;4.446;2022-07-24T01:10:46;19.08;;;17.05;;
46563;SDS011;32291;52.010;4.446;2022-07-24T01:11:49;19.67;;;17.33;;
46563;SDS011;32291;52.010;4.446;2022-07-24T01:12:54;16.42;;;14.82;;
46563;SDS011;32291;52.010;4.446;2022-07-24T01:13:58;16.23;;;14.50;;
46563;SDS011;32291;52.010;4.446;2022-07-24T01:15:01;15.95;;;14.57;;
46563;SDS011;32291;52.010;4.446;2022-07-24T01:16:08;15.38;;;13.77;;
46563;SDS011;32291;52.010;4.446;2022-07-24T01:17:11;15.70;;;13.45;;
46563;SDS011;32291;52.010;4.446;2022-07-24T01:18:13;14.13;;;12.60;;
46563;SDS011;32291;52.010;4.446;2022-07-24T01:19:15;15.85;;;13.57;;
46563;SDS011;32291;52.010;4.446;2022-07-24T01:20:17;14.15;;;12.80;;
46563;SDS011;32291;52.010;4.446;2022-07-24T01:21:20;13.98;;;12.57;;
46563;SDS011;32291;52.010;4.446;2022-07-24T01:22:21;13.18;;;11.90;;
46563;SDS011;32291;52.010;4.446;2022-07-24T01:23:24;13.80;;;12.27;;
46563;SDS011;32291;52.010;4.446;2022-07-24T01:24:26;14.85;;;12.82;;
46563;SDS011;32291;52.010;4.446;2022-07-24T01:25:28;13.70;;;12.30;;
46563;SDS011;32291;52.010;4.446;2022-07-24T01:26:31;14.27;;;12.77;;
46563;SDS011;32291;52.010;4.446;2022-07-24T01:27:33;14.52;;;13.00;;
46563;SDS011;32291;52.010;4.446;2022-07-24T01:28:35;17.83;;;13.20;;
46563;SDS011;32291;52.010;4.446;2022-07-24T01:29:37;14.60;;;12.10;;
46563;SDS011;32291;52.010;4.446;2022-07-24T01:30:39;12.85;;;11.73;;
46563;SDS011;32291;52.010;4.446;2022-07-24T01:31:42;14.95;;;11.88;;
46563;SDS011;32291;52.010;4.446;2022-07-24T01:32:44;13.80;;;12.45;;
46563;SDS011;32291;52.010;4.446;2022-07-24T01:33:46;13.30;;;11.90;;
46563;SDS011;32291;52.010;4.446;2022-07-24T01:34:48;14.95;;;11.80;;
46563;SDS011;32291;52.010;4.446;2022-07-24T01:35:49;15.38;;;11.40;;
46563;SDS011;32291;52.010;4.446;2022-07-24T01:36:53;13.10;;;11.80;;
46563;SDS011;32291;52.010;4.446;2022-07-24T01:37:56;14.68;;;13.23;;
46563;SDS011;32291;52.010;4.446;2022-07-24T01:38:58;16.88;;;12.68;;
46563;SDS011;32291;52.010;4.446;2022-07-24T01:40:00;13.07;;;11.75;;
46563;SDS011;32291;52.010;4.446;2022-07-24T01:41:02;12.55;;;11.25;;
46563;SDS011;32291;52.010;4.446;2022-07-24T01:42:05;12.57;;;10.75;;
46563;SDS011;32291;52.010;4.446;2022-07-24T01:43:07;12.70;;;11.40;;
46563;SDS011;32291;52.010;4.446;2022-07-24T01:44:09;12.80;;;10.65;;
46563;SDS011;32291;52.010;4.446;2022-07-24T01:45:12;13.85;;;10.60;;
46563;SDS011;32291;52.010;4.446;2022-07-24T01:46:15;13.40;;;10.20;;
46563;SDS011;32291;52.010;4.446;2022-07-24T01:47:17;10.75;;;9.63;;
46563;SDS011;32291;52.010;4.446;2022-07-24T01:48:18;12.38;;;9.95;;
46563;SDS011;32291;52.010;4.446;2022-07-24T01:49:20;11.55;;;9.95;;
46563;SDS011;32291;52.010;4.446;2022-07-24T01:50:22;15.07;;;10.68;;
46563;SDS011;32291;52.010;4.446;2022-07-24T01:51:26;10.98;;;9.88;;
46563;SDS011;32291;52.010;4.446;2022-07-24T01:52:27;13.50;;;10.10;;
46563;SDS011;32291;52.010;4.446;2022-07-24T01:53:29;10.27;;;9.18;;
46563;SDS011;32291;52.010;4.446;2022-07-24T01:54:32;10.07;;;9.05;;
46563;SDS011;32291;52.010;4.446;2022-07-24T01:55:33;11.50;;;9.23;;
46563;SDS011;32291;52.010;4.446;2022-07-24T01:56:36;11.90;;;9.63;;
46563;SDS011;32291;52.010;4.446;2022-07-24T01:57:38;11.13;;;9.43;;
46563;SDS011;32291;52.010;4.446;2022-07-24T01:58:41;13.75;;;9.88;;
46563;SDS011;32291;52.010;4.446;2022-07-24T01:59:42;9.98;;;8.95;;
46563;SDS011;32291;52.010;4.446;2022-07-24T02:00:44;9.52;;;8.10;;
46563;SDS011;32291;52.010;4.446;2022-07-24T02:01:47;12.88;;;8.73;;
46563;SDS011;32291;52.010;4.446;2022-07-24T02:02:50;12.15;;;8.70;;
46563;SDS011;32291;52.010;4.446;2022-07-24T02:03:52;10.55;;;9.20;;
46563;SDS011;32291;52.010;4.446;2022-07-24T02:04:54;9.93;;;8.40;;
46563;SDS011;32291;52.010;4.446;2022-07-24T02:05:56;12.20;;;9.50;;
46563;SDS011;32291;52.010;4.446;2022-07-24T02:06:58;9.52;;;8.40;;
46563;SDS011;32291;52.010;4.446;2022-07-24T02:08:00;11.60;;;8.73;;
46563;SDS011;32291;52.010;4.446;2022-07-24T02:09:03;11.23;;;8.50;;
46563;SDS011;32291;52.010;4.446;2022-07-24T02:10:05;10.52;;;8.75;;
46563;SDS011;32291;52.010;4.446;2022-07-24T02:11:08;14.45;;;8.75;;
46563;SDS011;32291;52.010;4.446;2022-07-24T02:12:11;11.05;;;8.75;;
46563;SDS011;32291;52.010;4.446;2022-07-24T02:13:13;13.32;;;8.65;;
46563;SDS011;32291;52.010;4.446;2022-07-24T02:14:16;10.75;;;8.88;;
46563;SDS011;32291;52.010;4.446;2022-07-24T02:15:17;9.43;;;8.35;;
46563;SDS011;32291;52.010;4.446;2022-07-24T02:16:20;9.23;;;8.32;;
46563;SDS011;32291;52.010;4.446;2022-07-24T02:17:22;11.07;;;8.88;;
46563;SDS011;32291;52.010;4.446;2022-07-24T02:18:24;8.50;;;7.60;;
46563;SDS011;32291;52.010;4.446;2022-07-24T02:19:26;8.73;;;7.80;;
46563;SDS011;32291;52.010;4.446;2022-07-24T02:20:29;11.57;;;8.75;;
46563;SDS011;32291;52.010;4.446;2022-07-24T02:21:31;12.15;;;8.70;;
46563;SDS011;32291;52.010;4.446;2022-07-24T02:22:33;9.73;;;8.73;;
46563;SDS011;32291;52.010;4.446;2022-07-24T02:23:35;10.18;;;8.05;;
46563;SDS011;32291;52.010;4.446;2022-07-24T02:24:37;18.35;;;9.65;;
46563;SDS011;32291;52.010;4.446;2022-07-24T02:25:39;9.57;;;8.40;;
46563;SDS011;32291;52.010;4.446;2022-07-24T02:26:41;10.32;;;9.15;;
46563;SDS011;32291;52.010;4.446;2022-07-24T02:27:43;11.93;;;8.23;;
46563;SDS011;32291;52.010;4.446;2022-07-24T02:28:45;9.95;;;8.50;;
46563;SDS011;32291;52.010;4.446;2022-07-24T02:29:47;12.48;;;8.98;;
46563;SDS011;32291;52.010;4.446;2022-07-24T02:30:50;8.93;;;8.10;;
46563;SDS011;32291;52.010;4.446;2022-07-24T02:31:52;9.70;;;8.43;;
46563;SDS011;32291;52.010;4.446;2022-07-24T02:32:54;10.02;;;8.45;;
46563;SDS011;32291;52.010;4.446;2022-07-24T02:33:56;10.07;;;8.68;;
46563;SDS011;32291;52.010;4.446;2022-07-24T02:34:59;14.38;;;9.50;;
46563;SDS011;32291;52.010;4.446;2022-07-24T02:36:01;12.07;;;8.93;;
46563;SDS011;32291;52.010;4.446;2022-07-24T02:37:04;10.15;;;8.57;;
46563;SDS011;32291;52.010;4.446;2022-07-24T02:38:06;9.90;;;8.50;;
46563;SDS011;32291;52.010;4.446;2022-07-24T02:39:09;10.52;;;9.27;;
46563;SDS011;32291;52.010;4.446;2022-07-24T02:40:12;11.20;;;9.30;;
46563;SDS011;32291;52.010;4.446;2022-07-24T02:41:16;9.77;;;8.75;;
46563;SDS011;32291;52.010;4.446;2022-07-24T02:42:18;13.55;;;8.98;;
46563;SDS011;32291;52.010;4.446;2022-07-24T02:43:20;11.27;;;8.82;;
46563;SDS011;32291;52.010;4.446;2022-07-24T02:44:22;12.20;;;8.65;;
46563;SDS011;32291;52.010;4.446;2022-07-24T02:45:24;11.48;;;9.13;;
46563;SDS011;32291;52.010;4.446;2022-07-24T02:46:26;9.85;;;8.85;;
46563;SDS011;32291;52.010;4.446;2022-07-24T02:47:29;13.25;;;9.32;;
46563;SDS011;32291;52.010;4.446;2022-07-24T02:48:30;10.48;;;8.60;;
46563;SDS011;32291;52.010;4.446;2022-07-24T02:49:32;11.32;;;9.50;;
46563;SDS011;32291;52.010;4.446;2022-07-24T02:50:34;9.93;;;8.90;;
46563;SDS011;32291;52.010;4.446;2022-07-24T02:51:36;11.52;;;8.85;;
46563;SDS011;32291;52.010;4.446;2022-07-24T02:52:38;11.13;;;8.13;;
46563;SDS011;32291;52.010;4.446;2022-07-24T02:53:40;9.88;;;8.88;;
46563;SDS011;32291;52.010;4.446;2022-07-24T02:54:42;10.05;;;9.00;;
46563;SDS011;32291;52.010;4.446;2022-07-24T02:55:44;13.23;;;9.50;;
46563;SDS011;32291;52.010;4.446;2022-07-24T02:56:46;11.73;;;8.88;;
46563;SDS011;32291;52.010;4.446;2022-07-24T02:57:48;11.30;;;9.40;;
46563;SDS011;32291;52.010;4.446;2022-07-24T02:58:50;11.77;;;9.60;;
46563;SDS011;32291;52.010;4.446;2022-07-24T02:59:52;12.15;;;10.68;;
46563;SDS011;32291;52.010;4.446;2022-07-24T03:00:55;11.88;;;9.98;;
46563;SDS011;32291;52.010;4.446;2022-07-24T03:01:56;11.02;;;9.35;;
46563;SDS011;32291;52.010;4.446;2022-07-24T03:02:59;11.10;;;9.23;;
46563;SDS011;32291;52.010;4.446;2022-07-24T03:04:01;11.88;;;9.98;;
46563;SDS011;32291;52.010;4.446;2022-07-24T03:05:04;9.82;;;8.93;;
46563;SDS011;32291;52.010;4.446;2022-07-24T03:06:07;9.95;;;8.95;;
46563;SDS011;32291;52.010;4.446;2022-07-24T03:07:10;9.30;;;8.48;;
46563;SDS011;32291;52.010;4.446;2022-07-24T03:08:12;9.25;;;8.25;;
46563;SDS011;32291;52.010;4.446;2022-07-24T03:09:14;10.10;;;9.02;;
46563;SDS011;32291;52.010;4.446;2022-07-24T03:10:16;11.93;;;9.10;;
46563;SDS011;32291;52.010;4.446;2022-07-24T03:11:19;11.77;;;9.65;;
46563;SDS011;32291;52.010;4.446;2022-07-24T03:12:21;10.68;;;8.30;;
46563;SDS011;32291;52.010;4.446;2022-07-24T03:13:24;8.88;;;7.47;;
46563;SDS011;32291;52.010;4.446;2022-07-24T03:14:26;9.93;;;8.93;;
46563;SDS011;32291;52.010;4.446;2022-07-24T03:15:28;9.65;;;8.65;;
46563;SDS011;32291;52.010;4.446;2022-07-24T03:16:30;9.00;;;8.10;;
46563;SDS011;32291;52.010;4.446;2022-07-24T03:17:33;11.70;;;8.45;;
46563;SDS011;32291;52.010;4.446;2022-07-24T03:18:35;9.85;;;8.48;;
46563;SDS011;32291;52.010;4.446;2022-07-24T03:19:37;11.65;;;8.32;;
46563;SDS011;32291;52.010;4.446;2022-07-24T03:20:39;8.32;;;7.43;;
46563;SDS011;32291;52.010;4.446;2022-07-24T03:21:40;10.15;;;7.22;;
46563;SDS011;32291;52.010;4.446;2022-07-24T03:22:43;10.43;;;7.80;;
46563;SDS011;32291;52.010;4.446;2022-07-24T03:23:47;9.13;;;7.95;;
46563;SDS011;32291;52.010;4.446;2022-07-24T03:24:49;8.93;;;7.63;;
46563;SDS011;32291;52.010;4.446;2022-07-24T03:25:51;8.63;;;7.65;;
46563;SDS011;32291;52.010;4.446;2022-07-24T03:26:55;11.00;;;8.15;;
46563;SDS011;32291;52.010;4.446;2022-07-24T03:27:57;9.48;;;7.28;;
46563;SDS011;32291;52.010;4.446;2022-07-24T03:28:59;9.23;;;7.18;;
46563;SDS011;32291;52.010;4.446;2022-07-24T03:30:02;10.30;;;7.82;;
46563;SDS011;32291;52.010;4.446;2022-07-24T03:31:07;7.93;;;7.13;;
46563;SDS011;32291;52.010;4.446;2022-07-24T03:32:09;9.07;;;7.60;;
46563;SDS011;32291;52.010;4.446;2022-07-24T03:33:11;10.02;;;7.43;;
46563;SDS011;32291;52.010;4.446;2022-07-24T03:34:13;8.00;;;7.20;;
46563;SDS011;32291;52.010;4.446;2022-07-24T03:35:15;11.15;;;7.95;;
46563;SDS011;32291;52.010;4.446;2022-07-24T03:36:17;10.32;;;7.25;;
46563;SDS011;32291;52.010;4.446;2022-07-24T03:37:20;10.10;;;7.10;;
46563;SDS011;32291;52.010;4.446;2022-07-24T03:38:22;8.93;;;7.13;;
46563;SDS011;32291;52.010;4.446;2022-07-24T03:39:24;11.10;;;7.15;;
46563;SDS011;32291;52.010;4.446;2022-07-24T03:40:26;8.48;;;7.10;;
46563;SDS011;32291;52.010;4.446;2022-07-24T03:41:28;8.93;;;6.47;;
46563;SDS011;32291;52.010;4.446;2022-07-24T03:42:30;10.90;;;7.70;;
46563;SDS011;32291;52.010;4.446;2022-07-24T03:43:33;8.70;;;6.28;;
46563;SDS011;32291;52.010;4.446;2022-07-24T03:44:35;9.82;;;6.93;;
46563;SDS011;32291;52.010;4.446;2022-07-24T03:45:37;8.70;;;5.97;;
46563;SDS011;32291;52.010;4.446;2022-07-24T03:46:39;7.20;;;6.53;;
46563;SDS011;32291;52.010;4.446;2022-07-24T03:47:41;9.60;;;6.25;;
46563;SDS011;32291;52.010;4.446;2022-07-24T03:48:43;7.72;;;6.38;;
46563;SDS011;32291;52.010;4.446;2022-07-24T03:49:45;8.32;;;6.55;;
46563;SDS011;32291;52.010;4.446;2022-07-24T03:50:48;12.20;;;6.90;;
46563;SDS011;32291;52.010;4.446;2022-07-24T03:51:50;7.53;;;6.60;;
46563;SDS011;32291;52.010;4.446;2022-07-24T03:52:52;6.38;;;5.78;;
46563;SDS011;32291;52.010;4.446;2022-07-24T03:53:55;7.18;;;6.20;;
46563;SDS011;32291;52.010;4.446;2022-07-24T03:54:57;7.68;;;5.90;;
46563;SDS011;32291;52.010;4.446;2022-07-24T03:55:59;9.80;;;6.53;;
46563;SDS011;32291;52.010;4.446;2022-07-24T03:57:01;8.00;;;6.07;;
46563;SDS011;32291;52.010;4.446;2022-07-24T03:58:03;7.45;;;5.97;;
46563;SDS011;32291;52.010;4.446;2022-07-24T03:59:05;6.40;;;5.80;;
46563;SDS011;32291;52.010;4.446;2022-07-24T04:00:08;6.40;;;5.55;;
46563;SDS011;32291;52.010;4.446;2022-07-24T04:01:11;7.07;;;6.03;;
46563;SDS011;32291;52.010;4.446;2022-07-24T04:02:14;8.48;;;6.00;;
46563;SDS011;32291;52.010;4.446;2022-07-24T04:03:16;6.53;;;5.93;;
46563;SDS011;32291;52.010;4.446;2022-07-24T04:04:18;6.20;;;5.65;;
46563;SDS011;32291;52.010;4.446;2022-07-24T04:05:20;7.18;;;6.43;;
46563;SDS011;32291;52.010;4.446;2022-07-24T04:06:22;6.97;;;5.45;;
46563;SDS011;32291;52.010;4.446;2022-07-24T04:07:24;9.43;;;6.25;;
46563;SDS011;32291;52.010;4.446;2022-07-24T04:08:26;8.52;;;5.97;;
46563;SDS011;32291;52.010;4.446;2022-07-24T04:09:28;7.47;;;5.40;;
46563;SDS011;32291;52.010;4.446;2022-07-24T04:10:30;8.15;;;5.28;;
46563;SDS011;32291;52.010;4.446;2022-07-24T04:11:32;7.88;;;5.95;;
46563;SDS011;32291;52.010;4.446;2022-07-24T04:12:34;7.90;;;5.55;;
46563;SDS011;32291;52.010;4.446;2022-07-24T04:13:36;9.77;;;5.65;;
46563;SDS011;32291;52.010;4.446;2022-07-24T04:14:38;6.97;;;6.38;;
46563;SDS011;32291;52.010;4.446;2022-07-24T04:15:40;9.68;;;4.85;;
46563;SDS011;32291;52.010;4.446;2022-07-24T04:16:42;8.25;;;5.20;;
46563;SDS011;32291;52.010;4.446;2022-07-24T04:17:45;7.40;;;5.18;;
46563;SDS011;32291;52.010;4.446;2022-07-24T04:18:47;9.27;;;5.78;;
46563;SDS011;32291;52.010;4.446;2022-07-24T04:19:50;6.85;;;5.40;;
46563;SDS011;32291;52.010;4.446;2022-07-24T04:20:52;6.57;;;5.28;;
46563;SDS011;32291;52.010;4.446;2022-07-24T04:21:54;8.05;;;5.95;;
46563;SDS011;32291;52.010;4.446;2022-07-24T04:22:57;8.45;;;5.15;;
46563;SDS011;32291;52.010;4.446;2022-07-24T04:23:59;5.57;;;5.05;;
46563;SDS011;32291;52.010;4.446;2022-07-24T04:25:02;5.70;;;5.13;;
46563;SDS011;32291;52.010;4.446;2022-07-24T04:26:05;6.07;;;4.68;;
46563;SDS011;32291;52.010;4.446;2022-07-24T04:27:07;5.88;;;5.03;;
46563;SDS011;32291;52.010;4.446;2022-07-24T04:28:09;8.50;;;5.35;;
46563;SDS011;32291;52.010;4.446;2022-07-24T04:29:11;6.38;;;5.25;;
46563;SDS011;32291;52.010;4.446;2022-07-24T04:30:13;7.25;;;5.05;;
46563;SDS011;32291;52.010;4.446;2022-07-24T04:31:16;6.70;;;4.78;;
46563;SDS011;32291;52.010;4.446;2022-07-24T04:32:17;8.85;;;4.70;;
46563;SDS011;32291;52.010;4.446;2022-07-24T04:33:19;6.20;;;4.60;;
46563;SDS011;32291;52.010;4.446;2022-07-24T04:34:21;7.80;;;4.90;;
46563;SDS011;32291;52.010;4.446;2022-07-24T04:35:23;6.28;;;4.63;;
46563;SDS011;32291;52.010;4.446;2022-07-24T04:36:26;6.53;;;4.25;;
46563;SDS011;32291;52.010;4.446;2022-07-24T04:37:28;5.13;;;4.50;;
46563;SDS011;32291;52.010;4.446;2022-07-24T04:38:31;4.97;;;4.40;;
46563;SDS011;32291;52.010;4.446;2022-07-24T04:39:35;6.95;;;4.63;;
46563;SDS011;32291;52.010;4.446;2022-07-24T04:40:37;5.18;;;4.32;;
46563;SDS011;32291;52.010;4.446;2022-07-24T04:41:39;4.82;;;4.40;;
46563;SDS011;32291;52.010;4.446;2022-07-24T04:42:41;7.57;;;4.78;;
46563;SDS011;32291;52.010;4.446;2022-07-24T04:43:44;5.82;;;4.80;;
46563;SDS011;32291;52.010;4.446;2022-07-24T04:44:46;6.63;;;5.40;;
46563;SDS011;32291;52.010;4.446;2022-07-24T04:45:48;5.97;;;4.88;;
46563;SDS011;32291;52.010;4.446;2022-07-24T04:46:50;6.88;;;4.90;;
46563;SDS011;32291;52.010;4.446;2022-07-24T04:47:52;5.68;;;4.72;;
46563;SDS011;32291;52.010;4.446;2022-07-24T04:48:54;6.30;;;4.82;;
46563;SDS011;32291;52.010;4.446;2022-07-24T04:49:56;5.28;;;4.55;;
46563;SDS011;32291;52.010;4.446;2022-07-24T04:50:59;6.07;;;4.28;;
46563;SDS011;32291;52.010;4.446;2022-07-24T04:52:01;8.88;;;4.93;;
46563;SDS011;32291;52.010;4.446;2022-07-24T04:53:03;5.10;;;4.30;;
46563;SDS011;32291;52.010;4.446;2022-07-24T04:54:05;6.80;;;4.85;;
46563;SDS011;32291;52.010;4.446;2022-07-24T04:55:07;10.73;;;5.18;;
46563;SDS011;32291;52.010;4.446;2022-07-24T04:56:10;6.93;;;5.07;;
46563;SDS011;32291;52.010;4.446;2022-07-24T04:57:12;6.30;;;4.47;;
46563;SDS011;32291;52.010;4.446;2022-07-24T04:58:15;7.13;;;4.95;;
46563;SDS011;32291;52.010;4.446;2022-07-24T04:59:18;5.65;;;4.07;;
46563;SDS011;32291;52.010;4.446;2022-07-24T05:00:20;5.80;;;4.32;;
46563;SDS011;32291;52.010;4.446;2022-07-24T05:01:23;6.68;;;4.60;;
46563;SDS011;32291;52.010;4.446;2022-07-24T05:02:25;6.38;;;4.30;;
46563;SDS011;32291;52.010;4.446;2022-07-24T05:03:28;7.25;;;3.90;;
46563;SDS011;32291;52.010;4.446;2022-07-24T05:04:29;5.32;;;4.47;;
46563;SDS011;32291;52.010;4.446;2022-07-24T05:05:31;5.45;;;4.70;;
46563;SDS011;32291;52.010;4.446;2022-07-24T05:06:34;6.43;;;4.55;;
46563;SDS011;32291;52.010;4.446;2022-07-24T05:07:36;4.55;;;4.15;;
46563;SDS011;32291;52.010;4.446;2022-07-24T05:08:39;4.93;;;4.20;;
46563;SDS011;32291;52.010;4.446;2022-07-24T05:09:41;5.15;;;4.25;;
46563;SDS011;32291;52.010;4.446;2022-07-24T05:10:43;5.68;;;4.60;;
46563;SDS011;32291;52.010;4.446;2022-07-24T05:11:45;4.95;;;4.00;;
46563;SDS011;32291;52.010;4.446;2022-07-24T05:12:47;8.85;;;4.70;;
46563;SDS011;32291;52.010;4.446;2022-07-24T05:13:49;5.00;;;4.50;;
46563;SDS011;32291;52.010;4.446;2022-07-24T05:14:52;5.07;;;4.57;;
46563;SDS011;32291;52.010;4.446;2022-07-24T05:15:53;9.18;;;5.40;;
46563;SDS011;32291;52.010;4.446;2022-07-24T05:16:56;8.00;;;4.30;;
46563;SDS011;32291;52.010;4.446;2022-07-24T05:17:58;7.32;;;4.82;;
46563;SDS011;32291;52.010;4.446;2022-07-24T05:19:00;5.93;;;4.75;;
46563;SDS011;32291;52.010;4.446;2022-07-24T05:20:04;5.28;;;4.20;;
46563;SDS011;32291;52.010;4.446;2022-07-24T05:21:08;7.95;;;4.25;;
46563;SDS011;32291;52.010;4.446;2022-07-24T05:22:11;4.95;;;4.32;;
46563;SDS011;32291;52.010;4.446;2022-07-24T05:23:13;7.95;;;4.70;;
46563;SDS011;32291;52.010;4.446;2022-07-24T05:24:15;5.43;;;4.82;;
46563;SDS011;32291;52.010;4.446;2022-07-24T05:25:17;6.97;;;4.85;;
46563;SDS011;32291;52.010;4.446;2022-07-24T05:26:19;6.05;;;4.55;;
46563;SDS011;32291;52.010;4.446;2022-07-24T05:27:21;8.30;;;4.80;;
46563;SDS011;32291;52.010;4.446;2022-07-24T05:28:24;9.07;;;4.93;;
46563;SDS011;32291;52.010;4.446;2022-07-24T05:29:26;9.25;;;4.85;;
46563;SDS011;32291;52.010;4.446;2022-07-24T05:30:28;7.55;;;5.60;;
46563;SDS011;32291;52.010;4.446;2022-07-24T05:31:30;7.85;;;4.38;;
46563;SDS011;32291;52.010;4.446;2022-07-24T05:32:33;5.03;;;4.40;;
46563;SDS011;32291;52.010;4.446;2022-07-24T05:33:35;9.18;;;4.53;;
46563;SDS011;32291;52.010;4.446;2022-07-24T05:34:38;8.70;;;4.75;;
46563;SDS011;32291;52.010;4.446;2022-07-24T05:35:40;10.73;;;4.85;;
46563;SDS011;32291;52.010;4.446;2022-07-24T05:36:42;8.65;;;4.57;;
46563;SDS011;32291;52.010;4.446;2022-07-24T05:37:44;8.27;;;4.75;;
46563;SDS011;32291;52.010;4.446;2022-07-24T05:38:46;7.55;;;3.90;;
46563;SDS011;32291;52.010;4.446;2022-07-24T05:39:49;7.05;;;4.15;;
46563;SDS011;32291;52.010;4.446;2022-07-24T05:40:51;5.85;;;4.35;;
46563;SDS011;32291;52.010;4.446;2022-07-24T05:41:53;6.35;;;4.50;;
46563;SDS011;32291;52.010;4.446;2022-07-24T05:42:55;11.63;;;4.93;;
46563;SDS011;32291;52.010;4.446;2022-07-24T05:43:57;6.55;;;4.18;;
46563;SDS011;32291;52.010;4.446;2022-07-24T05:44:59;8.25;;;3.83;;
46563;SDS011;32291;52.010;4.446;2022-07-24T05:46:01;9.95;;;4.13;;
46563;SDS011;32291;52.010;4.446;2022-07-24T05:47:05;8.98;;;4.60;;
46563;SDS011;32291;52.010;4.446;2022-07-24T05:48:07;6.65;;;4.13;;
46563;SDS011;32291;52.010;4.446;2022-07-24T05:49:09;6.45;;;4.28;;
46563;SDS011;32291;52.010;4.446;2022-07-24T05:50:12;6.07;;;4.22;;
46563;SDS011;32291;52.010;4.446;2022-07-24T05:51:15;4.50;;;3.83;;
46563;SDS011;32291;52.010;4.446;2022-07-24T05:52:18;6.95;;;4.15;;
46563;SDS011;32291;52.010;4.446;2022-07-24T05:53:19;7.18;;;4.35;;
46563;SDS011;32291;52.010;4.446;2022-07-24T05:54:22;5.18;;;3.90;;
46563;SDS011;32291;52.010;4.446;2022-07-24T05:55:23;4.40;;;3.67;;
46563;SDS011;32291;52.010;4.446;2022-07-24T05:56:25;5.35;;;3.50;;
46563;SDS011;32291;52.010;4.446;2022-07-24T05:57:28;6.95;;;3.83;;
46563;SDS011;32291;52.010;4.446;2022-07-24T05:58:30;4.05;;;3.47;;
46563;SDS011;32291;52.010;4.446;2022-07-24T05:59:32;6.97;;;4.13;;
46563;SDS011;32291;52.010;4.446;2022-07-24T06:00:34;4.68;;;4.00;;
46563;SDS011;32291;52.010;4.446;2022-07-24T06:01:37;5.15;;;3.90;;
46563;SDS011;32291;52.010;4.446;2022-07-24T06:02:39;4.70;;;4.00;;
46563;SDS011;32291;52.010;4.446;2022-07-24T06:03:42;6.32;;;3.92;;
46563;SDS011;32291;52.010;4.446;2022-07-24T06:04:44;6.10;;;3.83;;
46563;SDS011;32291;52.010;4.446;2022-07-24T06:05:46;5.38;;;4.00;;
46563;SDS011;32291;52.010;4.446;2022-07-24T06:06:49;6.90;;;4.28;;
46563;SDS011;32291;52.010;4.446;2022-07-24T06:07:51;3.70;;;3.40;;
46563;SDS011;32291;52.010;4.446;2022-07-24T06:08:53;6.47;;;4.13;;
46563;SDS011;32291;52.010;4.446;2022-07-24T06:09:56;5.25;;;3.67;;
46563;SDS011;32291;52.010;4.446;2022-07-24T06:10:58;5.15;;;4.00;;
46563;SDS011;32291;52.010;4.446;2022-07-24T06:12:00;4.35;;;3.50;;